Current Weather

Chhatrapati Shivaji Intl

Chhatrapati Shivaji Intl, India (VABB)

Report from: Friday, May 20, 2022 12:30 AM IST
Current time: Friday, May 20, 2022 12:49 AM IST

Nearby weather
Weather history
Weather forecast

Present weatherHaze
Temperature30.0°C (86.0°F)
Heat index37.5°C (99.5°F)
Dew point26.0°C (78.8°F)
Winds 9 kts (4.6 m/s, 10.4 mph) Southwest (220°)
Visibility2.2 mi. (3.5 km)
Clouds Scattered clouds 2,000 ft. (610 m)
Scattered clouds 2,500 ft. (762 m)
Altimeter29.71 in.Hg (1006 mB)
Relative humidity79 %
Density altitude2,411 ft. (735 m)
Remarks No significant changes expected in the next two hours
Flight conditions Instrument Meteorological Conditions
Raw dataVABB 191900Z 22009KT 3500 HZ SCT020 SCT025 30/26 Q1006 NOSIG
An error has occurred. This application may no longer respond until reloaded. Reload 🗙